»·PEaware :: PSV1 KPDX-KSMF

PSV1 :: KPDX-KSMF

FLIGHT INFORMATION

Flight Status: Arrived
Operator:
Power Set Virtual (website)
More flights by this operator :: More flights under this callsign
Pilot: Max W. (2591)
Aircraft: AIRBUS A321
(A321)
More flights by this aircraft type
Origin: KPDX Portland Intl
United States
Destination: KSMF Sacramento Intl
United States
More flights between these airports :: More routes between these airports
Route: HRMNS5 HRMNS J189 LMT TUDOR2
File this flight plan on PilotEdge
Remarks: NEW ATP , STILL A STUDENT PILOT AT HEART THO
Altitude:
(Current/Filed)
33,000ft
Speed:
(Current/Filed)
450kts
Departed: 23-Apr-20 06:23 PM
Arrived: 23-Apr-20 07:27 PM
Distance/Time
Traveled:
416nm/1:04
Distance/Time
To Go:
Arrived

Flight Plot

Page will automatically refresh every two minutes.


Map Options




Map Legend


Flown Route
Filed Route
Departure Airport
Arrival Airport
Navaid (VOR, NDB)
Fix

Horizontal Profiles

Position Reports

Time Latitude Longitude Heading Altitude Ground
Speed
23-Apr-20 17:34 45.592081 -122.596469 197 44ft 0kts
23-Apr-20 17:35 45.592081 -122.596469 197 44ft 0kts
23-Apr-20 17:36 45.592081 -122.596469 197 44ft 0kts
23-Apr-20 17:37 45.592081 -122.596469 197 44ft 0kts
23-Apr-20 17:38 45.592081 -122.596469 197 44ft 0kts
23-Apr-20 17:39 45.592081 -122.596469 197 44ft 0kts
23-Apr-20 17:40 45.592081 -122.596469 197 44ft 0kts
23-Apr-20 17:41 45.592081 -122.596469 197 44ft 0kts
23-Apr-20 17:42 45.592081 -122.596469 197 44ft 0kts
23-Apr-20 17:43 45.592081 -122.596469 197 44ft 0kts
23-Apr-20 17:44 45.592081 -122.596469 197 44ft 0kts
23-Apr-20 17:45 45.592081 -122.596469 197 44ft 0kts
23-Apr-20 17:46 45.592081 -122.596469 197 44ft 0kts
23-Apr-20 17:47 45.592081 -122.596469 197 44ft 0kts
23-Apr-20 17:48 45.592081 -122.596469 197 44ft 0kts
23-Apr-20 17:49 45.592081 -122.596469 197 44ft 0kts
23-Apr-20 17:50 45.592081 -122.596469 197 44ft 0kts
23-Apr-20 17:51 45.592081 -122.596469 197 44ft 0kts
23-Apr-20 17:52 45.592081 -122.596469 197 44ft 0kts
23-Apr-20 17:53 45.592081 -122.596469 197 44ft 0kts
23-Apr-20 17:54 45.592081 -122.596469 197 44ft 0kts
23-Apr-20 17:55 45.592081 -122.596469 197 44ft 0kts
23-Apr-20 17:56 45.592081 -122.596469 197 44ft 0kts
23-Apr-20 17:57 45.592081 -122.596469 197 44ft 0kts
23-Apr-20 17:58 45.592081 -122.596469 197 44ft 0kts
23-Apr-20 17:59 45.592081 -122.596469 197 44ft 0kts
23-Apr-20 18:00 45.592081 -122.596469 197 44ft 0kts
23-Apr-20 18:01 45.592081 -122.596469 197 44ft 0kts
23-Apr-20 18:02 45.592081 -122.596469 197 44ft 0kts
23-Apr-20 18:03 45.592081 -122.596469 197 44ft 0kts
23-Apr-20 18:04 45.592081 -122.596469 197 44ft 0kts
23-Apr-20 18:05 45.592081 -122.596469 197 44ft 0kts
23-Apr-20 18:06 45.592081 -122.596469 197 44ft 0kts
23-Apr-20 18:07 45.592081 -122.596469 197 44ft 0kts
23-Apr-20 18:08 45.592081 -122.596469 197 44ft 0kts
23-Apr-20 18:09 45.592081 -122.596469 197 44ft 0kts
23-Apr-20 18:10 45.592081 -122.596469 197 44ft 0kts
23-Apr-20 18:11 45.592081 -122.596469 197 44ft 0kts
23-Apr-20 18:12 45.592081 -122.596469 197 44ft 0kts
23-Apr-20 18:13 45.592081 -122.596469 197 44ft 0kts
23-Apr-20 18:14 45.592081 -122.596469 197 44ft 0kts
23-Apr-20 18:15 45.592469 -122.596087 245 44ft 2kts
23-Apr-20 18:16 45.592425 -122.594979 292 44ft 2kts
23-Apr-20 18:17 45.592219 -122.594393 299 44ft 0kts
23-Apr-20 18:18 45.592219 -122.594394 299 44ft 0kts
23-Apr-20 18:19 45.592220 -122.594395 299 44ft 0kts
23-Apr-20 18:20 45.593637 -122.596404 39 44ft 12kts
23-Apr-20 18:22 45.594538 -122.595227 89 44ft 13kts
23-Apr-20 18:23 45.584355 -122.568786 117 310ft 153kts
23-Apr-20 18:24 45.573017 -122.505722 100 2293ft 187kts
23-Apr-20 18:25 45.558699 -122.422055 104 3868ft 249kts
23-Apr-20 18:26 45.531403 -122.324608 145 6287ft 277kts
23-Apr-20 18:27 45.455618 -122.309388 187 8919ft 285kts
23-Apr-20 18:28 45.373382 -122.323170 189 10921ft 324kts
23-Apr-20 18:29 45.280278 -122.337856 190 13243ft 344kts
23-Apr-20 18:30 45.182466 -122.353597 192 15393ft 366kts
23-Apr-20 18:31 45.077438 -122.370258 192 17322ft 388kts
23-Apr-20 18:32 44.967899 -122.387644 193 19289ft 403kts
23-Apr-20 18:33 44.852742 -122.366834 175 21124ft 430kts
23-Apr-20 18:34 44.733509 -122.337101 177 22790ft 439kts
23-Apr-20 18:35 44.611315 -122.306939 177 24305ft 452kts
23-Apr-20 18:36 44.485664 -122.276195 178 25634ft 463kts
23-Apr-20 18:37 44.358553 -122.245124 179 27228ft 463kts
23-Apr-20 18:38 44.231672 -122.214243 180 28728ft 462kts
23-Apr-20 18:39 44.103086 -122.183201 181 29471ft 479kts
23-Apr-20 18:40 43.968405 -122.150820 181 29757ft 505kts
23-Apr-20 18:40 43.852229 -122.122860 181 30773ft 502kts
23-Apr-20 18:42 43.691931 -122.084756 181 32002ft 500kts
23-Apr-20 18:43 43.555432 -122.052224 181 33099ft 495kts
23-Apr-20 18:43 43.443047 -122.025723 181 33375ft 491kts
23-Apr-20 18:44 43.307978 -121.993899 181 33369ft 492kts
23-Apr-20 18:45 43.173259 -121.962304 180 33331ft 492kts
23-Apr-20 18:46 43.037686 -121.930684 180 33300ft 493kts
23-Apr-20 18:47 42.902809 -121.899370 180 33362ft 492kts
23-Apr-20 18:48 42.767715 -121.868112 179 33353ft 491kts
23-Apr-20 18:49 42.633011 -121.837153 179 33283ft 491kts
23-Apr-20 18:50 42.497576 -121.806117 179 33330ft 500kts
23-Apr-20 18:51 42.360610 -121.774754 179 33337ft 499kts
23-Apr-20 18:52 42.223449 -121.743640 178 33306ft 498kts
23-Apr-20 18:53 42.087781 -121.726444 189 33292ft 485kts
23-Apr-20 18:54 41.952288 -121.727017 188 33340ft 486kts
23-Apr-20 18:55 41.817015 -121.725985 189 33368ft 486kts
23-Apr-20 18:56 41.681609 -121.725376 188 33350ft 486kts
23-Apr-20 18:57 41.546421 -121.724756 188 33302ft 485kts
23-Apr-20 18:58 41.411131 -121.724127 188 33251ft 486kts
23-Apr-20 18:59 41.275712 -121.723474 188 33237ft 487kts
23-Apr-20 19:00 41.140121 -121.722852 188 33294ft 488kts
23-Apr-20 19:01 41.004410 -121.722239 188 33281ft 487kts
23-Apr-20 19:02 40.869119 -121.721597 188 33231ft 486kts
23-Apr-20 19:03 40.734029 -121.720987 187 33152ft 486kts
23-Apr-20 19:04 40.598448 -121.720368 187 33152ft 486kts
23-Apr-20 19:05 40.463363 -121.719772 187 33203ft 486kts
23-Apr-20 19:06 40.329659 -121.710563 182 30537ft 482kts
23-Apr-20 19:07 40.192224 -121.698581 180 25281ft 500kts
23-Apr-20 19:08 40.053895 -121.686618 180 20658ft 484kts
23-Apr-20 19:09 39.922589 -121.675425 179 16538ft 462kts
23-Apr-20 19:10 39.797124 -121.664748 178 13791ft 443kts
23-Apr-20 19:11 39.675832 -121.654449 178 12113ft 432kts
23-Apr-20 19:12 39.556027 -121.644260 178 12056ft 432kts
23-Apr-20 19:13 39.438212 -121.634262 178 12019ft 412kts
23-Apr-20 19:14 39.331714 -121.625284 177 11292ft 356kts
23-Apr-20 19:15 39.239350 -121.618910 181 10269ft 315kts
23-Apr-20 19:16 39.152667 -121.622925 183 8790ft 306kts
23-Apr-20 19:17 39.069414 -121.633223 192 7338ft 296kts
23-Apr-20 19:18 38.990007 -121.654678 193 5950ft 286kts
23-Apr-20 19:19 38.912992 -121.675349 193 4541ft 280kts
23-Apr-20 19:20 38.839042 -121.694857 193 3217ft 273kts
23-Apr-20 19:21 38.764389 -121.713538 187 2901ft 269kts
23-Apr-20 19:22 38.689650 -121.714963 181 1874ft 259kts
23-Apr-20 19:23 38.643545 -121.670292 88 1601ft 205kts
23-Apr-20 19:24 38.651711 -121.607502 49 775ft 179kts
23-Apr-20 19:25 38.692592 -121.601356 0 42ft 62kts
23-Apr-20 19:26 38.690992 -121.598614 157 42ft 22kts
23-Apr-20 19:27 38.690567 -121.596695 85 42ft 0kts
23-Apr-20 19:28 38.690569 -121.596659 85 42ft 0kts

Navigation Log

Ident Type
Flight plan parsing failed, navigation log unavailable